Time;durP1;ratioP1;P1;durP2;ratioP2;P2;SDS_P1;SDS_P2;PMS_P1;PMS_P2;Temp;Humidity;BMP_temperature;BMP_pressure;BME280_temperature;BME280_humidity;BME280_pressure;Samples;Min_cycle;Max_cycle;Signal;HPM_P1;HPM_P2
2023/08/12 00:00:19;;;;;;;20.60;7.68;;;21.20;99.90;;;;;;5085958;28;20120;-73
2023/08/12 00:02:45;;;;;;;15.18;7.30;;;21.10;99.90;;;;;;5072721;28;20029;-72
2023/08/12 00:05:11;;;;;;;18.80;7.20;;;21.10;99.90;;;;;;5065782;28;20028;-73
2023/08/12 00:07:38;;;;;;;14.88;6.65;;;21.10;99.90;;;;;;5075731;28;20093;-71
2023/08/12 00:10:04;;;;;;;14.65;7.57;;;21.10;99.90;;;;;;5066969;28;20044;-70
2023/08/12 00:12:32;;;;;;;17.35;7.60;;;21.10;99.90;;;;;;5067019;28;20025;-71
2023/08/12 00:14:57;;;;;;;20.38;8.55;;;21.00;99.90;;;;;;5067116;28;20017;-72
2023/08/12 00:17:23;;;;;;;20.27;7.80;;;21.00;99.90;;;;;;5066867;28;20092;-71
2023/08/12 00:19:49;;;;;;;16.98;6.97;;;21.00;99.90;;;;;;5065679;28;20028;-72
2023/08/12 00:22:14;;;;;;;17.85;8.45;;;21.00;99.90;;;;;;5065893;28;20027;-73
2023/08/12 00:24:40;;;;;;;16.85;8.10;;;20.90;99.90;;;;;;5066699;28;20470;-71
2023/08/12 00:27:06;;;;;;;23.25;8.40;;;20.90;99.90;;;;;;5067056;28;20021;-71
2023/08/12 00:29:32;;;;;;;17.48;8.15;;;20.90;99.90;;;;;;5086019;28;20047;-72
2023/08/12 00:31:58;;;;;;;17.98;7.90;;;20.90;99.90;;;;;;5085858;28;20024;-71
2023/08/12 00:34:24;;;;;;;18.80;7.97;;;20.90;99.90;;;;;;5086968;28;20577;-71
2023/08/12 00:36:49;;;;;;;22.20;7.85;;;20.80;99.90;;;;;;5086655;28;20078;-73
2023/08/12 00:39:15;;;;;;;19.63;8.30;;;20.80;99.90;;;;;;5086705;28;20029;-72
2023/08/12 00:41:41;;;;;;;19.42;8.50;;;20.80;99.90;;;;;;5085505;28;20040;-72
2023/08/12 00:44:06;;;;;;;22.60;9.35;;;20.80;99.90;;;;;;5086806;28;20039;-71
2023/08/12 00:46:33;;;;;;;19.70;9.00;;;20.80;99.90;;;;;;5086067;28;20017;-71
2023/08/12 00:48:59;;;;;;;20.30;9.45;;;20.80;99.90;;;;;;5086515;28;20036;-72
2023/08/12 00:51:25;;;;;;;21.52;9.40;;;20.80;99.90;;;;;;5086294;28;20088;-71
2023/08/12 00:53:51;;;;;;;22.05;9.38;;;20.80;99.90;;;;;;5086240;28;20029;-71
2023/08/12 00:56:17;;;;;;;24.85;9.18;;;20.80;99.90;;;;;;5086503;28;20047;-71
2023/08/12 00:58:43;;;;;;;24.05;11.00;;;20.80;99.90;;;;;;5074141;28;20033;-72
2023/08/12 01:01:10;;;;;;;27.48;11.68;;;20.70;99.90;;;;;;5066284;28;20037;-71
2023/08/12 01:03:36;;;;;;;27.70;12.30;;;20.70;99.90;;;;;;5064831;28;20104;-71
2023/08/12 01:06:03;;;;;;;29.30;12.27;;;20.70;99.90;;;;;;5076838;28;20072;-71
2023/08/12 01:08:30;;;;;;;23.98;10.88;;;20.60;99.90;;;;;;5085660;28;20028;-70
2023/08/12 01:11:09;;;;;;;26.50;11.93;;;20.60;99.90;;;;;;5086117;28;20032;-71
2023/08/12 01:13:49;;;;;;;17.83;10.48;;;20.50;99.90;;;;;;5085842;28;20114;-71
2023/08/12 01:16:17;;;;;;;22.10;11.27;;;20.50;99.90;;;;;;5084431;28;20029;-70
2023/08/12 01:18:44;;;;;;;23.63;11.30;;;20.60;99.90;;;;;;5086096;28;20024;-71
2023/08/12 01:21:14;;;;;;;26.25;12.45;;;20.60;99.90;;;;;;5086131;28;20025;-71
2023/08/12 01:23:41;;;;;;;30.33;15.23;;;20.60;99.90;;;;;;5086041;28;20025;-71
2023/08/12 01:26:06;;;;;;;32.00;14.90;;;20.60;99.90;;;;;;5085950;28;20025;-70
2023/08/12 01:28:32;;;;;;;29.98;14.32;;;20.50;99.90;;;;;;5085385;28;20031;-71
2023/08/12 01:31:16;;;;;;;26.23;13.88;;;20.50;99.90;;;;;;5085644;28;20021;-72
2023/08/12 01:33:49;;;;;;;26.17;14.88;;;20.50;99.90;;;;;;5086067;28;20052;-71
2023/08/12 01:36:20;;;;;;;23.83;13.20;;;20.50;99.90;;;;;;5084153;28;20029;-71
2023/08/12 01:38:47;;;;;;;26.30;13.40;;;20.50;99.90;;;;;;5085662;28;20028;-72
2023/08/12 01:41:14;;;;;;;24.95;13.85;;;20.50;99.90;;;;;;5084557;28;20051;-71
2023/08/12 01:43:41;;;;;;;32.55;14.60;;;20.50;99.90;;;;;;5084092;28;20028;-71
2023/08/12 01:46:06;;;;;;;26.40;14.60;;;20.50;99.90;;;;;;5071041;28;20021;-70
2023/08/12 01:48:32;;;;;;;26.40;14.65;;;20.50;99.90;;;;;;5065315;28;20088;-71
2023/08/12 01:50:58;;;;;;;28.88;15.52;;;20.50;99.90;;;;;;5063640;28;20025;-70
2023/08/12 01:53:23;;;;;;;27.33;14.60;;;20.50;99.90;;;;;;5079930;28;20397;-70
2023/08/12 01:55:51;;;;;;;27.67;14.25;;;20.50;99.90;;;;;;5081892;28;20033;-70
2023/08/12 01:58:16;;;;;;;32.55;16.10;;;20.50;99.90;;;;;;5064861;28;20040;-72
2023/08/12 02:00:42;;;;;;;29.33;16.15;;;20.50;99.90;;;;;;5075263;28;20024;-72
2023/08/12 02:03:07;;;;;;;32.58;17.20;;;20.50;99.90;;;;;;5083865;28;20035;-70
2023/08/12 02:05:34;;;;;;;34.25;16.67;;;20.50;99.90;;;;;;5071277;28;20025;-71
2023/08/12 02:07:59;;;;;;;31.15;17.08;;;20.50;99.90;;;;;;5063762;28;20025;-71
2023/08/12 02:10:25;;;;;;;32.60;17.90;;;20.40;99.90;;;;;;5064721;28;20040;-71
2023/08/12 02:12:51;;;;;;;27.05;14.32;;;20.40;99.90;;;;;;5064768;28;20037;-72
2023/08/12 02:15:16;;;;;;;31.23;16.45;;;20.40;99.90;;;;;;5065144;28;20100;-72
2023/08/12 02:17:43;;;;;;;32.53;16.25;;;20.50;99.90;;;;;;5064574;28;20048;-72
2023/08/12 02:20:09;;;;;;;30.13;16.10;;;20.40;99.90;;;;;;5065091;28;20056;-71
2023/08/12 02:22:34;;;;;;;30.40;17.20;;;20.40;99.90;;;;;;5064877;28;20040;-71
2023/08/12 02:25:00;;;;;;;31.58;16.95;;;20.40;99.90;;;;;;5064362;28;20037;-72
2023/08/12 02:27:25;;;;;;;34.30;19.67;;;20.40;99.90;;;;;;5063203;28;20112;-71
2023/08/12 02:29:51;;;;;;;31.65;17.25;;;20.40;99.90;;;;;;5063622;28;20036;-71
2023/08/12 02:32:17;;;;;;;31.67;18.83;;;20.30;99.90;;;;;;5064553;28;20044;-70
2023/08/12 02:34:42;;;;;;;25.70;17.65;;;20.30;99.90;;;;;;5064510;28;20044;-70
2023/08/12 02:37:08;;;;;;;36.22;19.55;;;20.30;99.90;;;;;;5064614;28;20439;-71
2023/08/12 02:39:33;;;;;;;33.35;18.50;;;20.20;99.90;;;;;;5063961;28;20033;-71
2023/08/12 02:41:59;;;;;;;29.92;18.02;;;20.20;99.90;;;;;;5064571;28;20028;-72
2023/08/12 02:44:24;;;;;;;32.95;18.52;;;20.20;99.90;;;;;;5064416;28;20029;-71
2023/08/12 02:46:50;;;;;;;31.90;18.67;;;20.20;99.90;;;;;;5062882;28;20489;-72
2023/08/12 02:49:15;;;;;;;28.63;17.00;;;20.20;99.90;;;;;;5064633;28;20024;-71
2023/08/12 02:51:41;;;;;;;31.08;17.10;;;20.10;99.90;;;;;;5064100;28;20087;-71
2023/08/12 02:54:07;;;;;;;33.75;17.27;;;20.10;99.90;;;;;;5064039;28;20555;-71
2023/08/12 02:56:32;;;;;;;34.45;17.80;;;20.10;99.90;;;;;;5064059;28;20025;-70
2023/08/12 02:58:58;;;;;;;28.60;16.92;;;20.10;99.90;;;;;;5063973;28;20025;-71
2023/08/12 03:01:24;;;;;;;29.95;17.58;;;20.10;99.90;;;;;;5064098;28;20036;-70
2023/08/12 03:03:50;;;;;;;31.75;17.65;;;20.00;99.90;;;;;;5064091;28;20017;-70
2023/08/12 03:06:16;;;;;;;31.33;18.17;;;20.10;99.90;;;;;;5062931;28;20033;-70
2023/08/12 03:08:41;;;;;;;26.85;16.33;;;20.00;99.90;;;;;;5063961;28;20025;-70
2023/08/12 03:11:07;;;;;;;33.08;18.02;;;20.00;99.90;;;;;;5064304;28;20063;-71
2023/08/12 03:13:33;;;;;;;32.42;18.52;;;20.00;99.90;;;;;;5062643;28;20036;-70
2023/08/12 03:15:58;;;;;;;38.10;19.17;;;20.00;99.90;;;;;;5064002;28;20036;-70
2023/08/12 03:18:24;;;;;;;31.17;18.77;;;19.90;99.90;;;;;;5064141;28;20044;-71
2023/08/12 03:20:50;;;;;;;34.88;19.38;;;19.90;99.90;;;;;;5063733;28;20033;-71
2023/08/12 03:23:15;;;;;;;29.90;19.00;;;19.90;99.90;;;;;;5063926;28;20023;-70
2023/08/12 03:25:41;;;;;;;34.05;19.77;;;19.90;99.90;;;;;;5064204;28;20025;-71
2023/08/12 03:28:07;;;;;;;34.78;20.65;;;19.80;99.90;;;;;;5063891;28;20074;-71
2023/08/12 03:30:33;;;;;;;34.28;20.85;;;19.80;99.90;;;;;;5064053;28;20623;-71
2023/08/12 03:32:58;;;;;;;41.60;22.73;;;19.80;99.90;;;;;;5062781;28;20247;-70
2023/08/12 03:35:24;;;;;;;38.67;21.45;;;19.80;99.90;;;;;;5065451;28;20029;-70
2023/08/12 03:37:52;;;;;;;31.75;21.67;;;19.80;99.90;;;;;;5073205;28;20051;-70
2023/08/12 03:40:17;;;;;;;39.60;20.98;;;19.80;99.90;;;;;;5063847;28;20029;-70
2023/08/12 03:42:43;;;;;;;35.03;19.85;;;19.70;99.90;;;;;;5063549;28;20104;-70
2023/08/12 03:45:09;;;;;;;39.65;20.95;;;19.80;99.90;;;;;;5074790;28;20054;-70
2023/08/12 03:47:35;;;;;;;37.30;21.33;;;19.80;99.90;;;;;;5083860;28;20028;-70
2023/08/12 03:50:00;;;;;;;35.38;20.80;;;19.80;99.90;;;;;;5083401;28;20060;-70
2023/08/12 03:52:26;;;;;;;39.38;21.48;;;19.80;99.90;;;;;;5083422;28;20052;-70
2023/08/12 03:54:53;;;;;;;34.58;20.90;;;19.80;99.90;;;;;;5079412;28;20437;-70
2023/08/12 03:57:18;;;;;;;34.42;20.67;;;19.80;99.90;;;;;;5071199;28;20068;-72
2023/08/12 03:59:44;;;;;;;34.63;21.73;;;19.70;99.90;;;;;;5071616;28;20394;-71
2023/08/12 04:02:10;;;;;;;34.45;21.58;;;19.70;99.90;;;;;;5074259;28;20029;-71
2023/08/12 04:04:36;;;;;;;32.60;21.70;;;19.80;99.90;;;;;;5075276;28;20061;-71
2023/08/12 04:07:01;;;;;;;41.53;23.25;;;19.80;99.90;;;;;;5072389;28;20436;-70
2023/08/12 04:09:27;;;;;;;40.97;23.13;;;19.80;99.90;;;;;;5078315;28;20092;-71
2023/08/12 04:11:53;;;;;;;39.95;22.70;;;19.80;99.90;;;;;;5073837;28;20033;-71
2023/08/12 04:14:18;;;;;;;39.28;22.70;;;19.80;99.90;;;;;;5066069;28;20120;-70
2023/08/12 04:16:44;;;;;;;44.58;24.95;;;19.80;99.90;;;;;;5067249;28;20039;-71
2023/08/12 04:19:09;;;;;;;35.33;22.40;;;19.80;99.90;;;;;;5065558;28;20031;-70
2023/08/12 04:21:35;;;;;;;36.67;23.80;;;19.80;99.90;;;;;;5067285;28;20055;-70
2023/08/12 04:24:01;;;;;;;36.25;23.63;;;19.80;99.90;;;;;;5066712;28;20065;-70
2023/08/12 04:26:26;;;;;;;42.45;25.92;;;19.80;99.90;;;;;;5065456;28;20510;-70
2023/08/12 04:28:52;;;;;;;36.30;22.33;;;19.80;99.90;;;;;;5067101;28;20088;-70
2023/08/12 04:31:17;;;;;;;46.20;26.25;;;19.80;99.90;;;;;;5067196;28;20028;-70
2023/08/12 04:33:43;;;;;;;41.72;26.70;;;19.80;99.90;;;;;;5066554;28;20025;-69
2023/08/12 04:36:08;;;;;;;45.63;25.95;;;19.70;99.90;;;;;;5065799;28;20025;-70
2023/08/12 04:38:35;;;;;;;47.17;28.13;;;19.70;99.90;;;;;;5066456;28;20046;-69
2023/08/12 04:41:00;;;;;;;49.00;29.02;;;19.70;99.90;;;;;;5066463;28;20028;-68
2023/08/12 04:43:26;;;;;;;45.90;28.45;;;19.70;99.90;;;;;;5065363;28;20021;-69
2023/08/12 04:45:52;;;;;;;50.20;27.17;;;19.70;99.90;;;;;;5066462;28;20052;-71
2023/08/12 04:48:18;;;;;;;50.30;28.95;;;19.70;99.90;;;;;;5066458;28;20025;-70
2023/08/12 04:50:43;;;;;;;48.15;28.55;;;19.70;99.90;;;;;;5066697;28;20025;-71
2023/08/12 04:53:09;;;;;;;45.38;28.55;;;19.60;99.90;;;;;;5064524;28;20069;-70
2023/08/12 04:55:35;;;;;;;47.75;28.52;;;19.60;99.90;;;;;;5066319;28;20036;-71
2023/08/12 04:58:02;;;;;;;48.38;28.80;;;19.60;99.90;;;;;;5066297;28;21071;-72
2023/08/12 05:00:28;;;;;;;51.20;30.45;;;19.60;99.90;;;;;;5066150;28;20021;-72
2023/08/12 05:02:53;;;;;;;54.17;31.27;;;19.50;99.90;;;;;;5066270;28;20100;-71
2023/08/12 05:05:19;;;;;;;51.72;31.75;;;19.50;99.90;;;;;;5065086;28;20074;-72
2023/08/12 05:07:48;;;;;;;52.25;30.33;;;19.50;99.90;;;;;;5064540;28;20512;-72
2023/08/12 05:10:17;;;;;;;53.50;31.10;;;19.50;99.90;;;;;;5074032;28;20025;-71
2023/08/12 05:12:44;;;;;;;54.08;32.42;;;19.50;99.90;;;;;;5069608;28;20032;-71
2023/08/12 05:15:10;;;;;;;50.67;30.77;;;19.50;99.90;;;;;;5065809;28;20037;-70
2023/08/12 05:17:36;;;;;;;51.47;31.70;;;19.50;99.90;;;;;;5066003;28;20036;-70
2023/08/12 05:20:02;;;;;;;51.72;30.33;;;19.50;99.90;;;;;;5064439;28;20044;-70
2023/08/12 05:22:28;;;;;;;49.25;30.35;;;19.50;99.90;;;;;;5066720;28;20084;-71
2023/08/12 05:24:54;;;;;;;52.63;30.45;;;19.50;99.90;;;;;;5069782;28;20025;-70
2023/08/12 05:27:19;;;;;;;47.47;28.48;;;19.50;99.90;;;;;;5078128;28;20481;-71
2023/08/12 05:29:45;;;;;;;45.80;29.05;;;19.50;99.90;;;;;;5071641;28;20033;-71
2023/08/12 05:32:10;;;;;;;48.53;30.27;;;19.50;99.90;;;;;;5066079;28;20021;-71
2023/08/12 05:34:36;;;;;;;47.60;29.20;;;19.50;99.90;;;;;;5063691;28;20074;-70
2023/08/12 05:37:02;;;;;;;47.78;28.70;;;19.50;99.90;;;;;;5064837;28;20059;-72
2023/08/12 05:39:27;;;;;;;48.92;27.85;;;19.50;99.90;;;;;;5072811;28;20086;-71
2023/08/12 05:41:53;;;;;;;45.10;27.52;;;19.50;99.90;;;;;;5074599;28;20502;-70
2023/08/12 05:44:18;;;;;;;44.90;27.45;;;19.50;99.90;;;;;;5072555;28;20059;-70
2023/08/12 05:46:44;;;;;;;43.05;26.15;;;19.50;99.90;;;;;;5072981;28;20028;-71
2023/08/12 05:49:10;;;;;;;43.08;27.77;;;19.50;99.90;;;;;;5077937;28;20056;-71
2023/08/12 05:51:35;;;;;;;49.00;27.90;;;19.40;99.90;;;;;;5063882;28;20520;-70
2023/08/12 05:54:01;;;;;;;48.10;27.20;;;19.50;99.90;;;;;;5064876;28;20040;-70
2023/08/12 05:56:26;;;;;;;43.88;26.80;;;19.40;99.90;;;;;;5075786;28;20028;-71
2023/08/12 05:58:52;;;;;;;46.72;26.73;;;19.50;99.90;;;;;;5065235;28;20077;-71
2023/08/12 06:01:18;;;;;;;47.85;26.88;;;19.50;99.90;;;;;;5065251;28;20044;-72
2023/08/12 06:03:44;;;;;;;45.88;28.60;;;19.50;99.90;;;;;;5064808;28;20036;-71
2023/08/12 06:06:09;;;;;;;51.13;30.20;;;19.50;99.90;;;;;;5065605;28;20032;-70
2023/08/12 06:08:35;;;;;;;41.92;27.02;;;19.60;99.90;;;;;;5064972;28;20066;-72
2023/08/12 06:11:01;;;;;;;45.40;28.63;;;19.60;99.90;;;;;;5080089;28;20039;-71
2023/08/12 06:13:26;;;;;;;45.97;27.98;;;19.60;99.90;;;;;;5073669;28;20109;-70
2023/08/12 06:15:52;;;;;;;52.33;29.30;;;19.70;99.90;;;;;;5080799;28;20032;-70
2023/08/12 06:18:20;;;;;;;47.28;27.65;;;19.70;99.90;;;;;;5071729;28;20036;-71
2023/08/12 06:20:46;;;;;;;54.67;30.60;;;19.80;99.90;;;;;;5073342;28;20029;-69
2023/08/12 06:23:12;;;;;;;47.95;29.50;;;19.80;99.90;;;;;;5071928;28;20048;-71
2023/08/12 06:25:38;;;;;;;48.03;30.00;;;19.90;99.90;;;;;;5070136;28;20028;-70
2023/08/12 06:28:08;;;;;;;53.30;31.10;;;19.90;99.90;;;;;;5073541;28;20059;-70
2023/08/12 06:30:34;;;;;;;57.72;33.33;;;20.00;99.90;;;;;;5071959;28;20845;-70
2023/08/12 06:32:59;;;;;;;56.95;32.17;;;20.00;99.90;;;;;;5065260;28;20029;-70
2023/08/12 06:35:25;;;;;;;50.33;29.92;;;20.10;99.90;;;;;;5064809;28;20033;-71
2023/08/12 06:37:50;;;;;;;46.40;26.80;;;20.10;99.90;;;;;;5071134;28;20056;-70
2023/08/12 06:40:16;;;;;;;44.70;25.85;;;20.10;99.90;;;;;;5064779;28;20035;-70
2023/08/12 06:42:41;;;;;;;41.88;24.55;;;20.10;99.90;;;;;;5064782;28;20025;-73
2023/08/12 06:45:08;;;;;;;42.40;26.73;;;20.10;99.90;;;;;;5062863;28;20474;-71
2023/08/12 06:47:33;;;;;;;43.03;23.77;;;20.20;99.90;;;;;;5063929;28;20021;-71
2023/08/12 06:49:59;;;;;;;36.85;22.77;;;20.10;99.90;;;;;;5075061;28;20084;-71
2023/08/12 06:52:25;;;;;;;38.72;23.40;;;20.10;99.90;;;;;;5071659;28;20051;-72
2023/08/12 06:54:51;;;;;;;36.30;23.25;;;20.10;99.90;;;;;;5084656;28;20025;-73
2023/08/12 06:57:16;;;;;;;38.70;23.45;;;20.10;99.90;;;;;;5084581;28;20047;-72
2023/08/12 06:59:42;;;;;;;45.90;25.38;;;20.20;99.90;;;;;;5070490;28;20108;-71
2023/08/12 07:02:07;;;;;;;38.33;21.95;;;20.20;99.90;;;;;;5068252;28;20044;-71
2023/08/12 07:04:33;;;;;;;40.08;22.30;;;20.20;99.90;;;;;;5069584;28;20046;-72
2023/08/12 07:06:59;;;;;;;44.33;23.95;;;20.20;99.90;;;;;;5065548;28;20077;-72
2023/08/12 07:09:25;;;;;;;38.28;22.88;;;20.20;99.90;;;;;;5066673;28;20029;-72
2023/08/12 07:11:50;;;;;;;39.58;23.73;;;20.10;99.90;;;;;;5066250;28;20036;-73
2023/08/12 07:14:16;;;;;;;40.35;22.52;;;20.10;99.90;;;;;;5066679;28;20025;-71
2023/08/12 07:16:41;;;;;;;35.38;22.85;;;20.10;99.90;;;;;;5070999;28;20031;-72
2023/08/12 07:19:07;;;;;;;35.25;22.63;;;20.00;99.90;;;;;;5075557;28;20094;-72
2023/08/12 07:21:33;;;;;;;40.22;22.77;;;20.00;99.90;;;;;;5071722;28;20068;-72
2023/08/12 07:23:58;;;;;;;38.75;23.08;;;20.00;99.90;;;;;;5064087;28;20025;-72
2023/08/12 07:26:24;;;;;;;35.78;21.50;;;20.00;99.90;;;;;;5063758;28;20043;-71
2023/08/12 07:28:50;;;;;;;36.15;20.75;;;20.00;99.90;;;;;;5075398;28;20100;-72
2023/08/12 07:31:15;;;;;;;28.98;17.80;;;20.10;99.90;;;;;;5082229;28;20033;-72
2023/08/12 07:33:41;;;;;;;26.27;17.13;;;20.10;99.90;;;;;;5068222;28;20036;-72
2023/08/12 07:36:07;;;;;;;30.95;17.92;;;20.20;99.90;;;;;;5065159;28;20056;-72
2023/08/12 07:38:32;;;;;;;30.67;17.13;;;20.20;99.90;;;;;;5062482;28;20623;-72
2023/08/12 07:40:58;;;;;;;29.52;18.42;;;20.30;99.90;;;;;;5062430;28;20032;-71
2023/08/12 07:43:23;;;;;;;28.02;15.95;;;20.30;99.90;;;;;;5066522;28;20017;-71
2023/08/12 07:45:53;;;;;;;24.83;15.52;;;20.30;99.90;;;;;;5077602;28;20428;-71
2023/08/12 07:48:22;;;;;;;24.00;14.95;;;20.40;99.90;;;;;;5087401;28;20032;-68
2023/08/12 07:50:54;;;;;;;20.67;12.63;;;20.40;99.90;;;;;;5079369;28;20485;-72
2023/08/12 07:53:20;;;;;;;19.70;12.32;;;20.40;99.90;;;;;;5067685;28;20045;-72
2023/08/12 07:55:46;;;;;;;18.27;12.40;;;20.50;99.90;;;;;;5067363;28;20108;-72
2023/08/12 07:58:12;;;;;;;24.80;14.35;;;20.50;99.90;;;;;;5067615;28;20063;-69
2023/08/12 08:00:38;;;;;;;22.27;13.68;;;20.50;99.90;;;;;;5066566;28;20056;-72
2023/08/12 08:03:04;;;;;;;22.38;13.88;;;20.50;99.90;;;;;;5073721;28;20021;-73
2023/08/12 08:05:30;;;;;;;21.40;13.52;;;20.50;99.90;;;;;;5068081;28;20048;-73
2023/08/12 08:07:55;;;;;;;17.77;12.18;;;20.50;99.90;;;;;;5084449;28;20381;-72
2023/08/12 08:10:21;;;;;;;18.38;11.75;;;20.60;99.90;;;;;;5065807;28;20040;-70
2023/08/12 08:12:47;;;;;;;17.73;11.20;;;20.60;99.90;;;;;;5071298;28;20029;-71
2023/08/12 08:15:12;;;;;;;20.55;12.98;;;20.60;99.90;;;;;;5065748;28;20037;-71
2023/08/12 08:17:38;;;;;;;22.17;12.43;;;20.60;99.90;;;;;;5077008;28;20071;-72
2023/08/12 08:20:05;;;;;;;23.45;13.10;;;20.60;99.90;;;;;;5075710;28;20028;-73
2023/08/12 08:22:31;;;;;;;19.60;13.45;;;20.70;99.90;;;;;;5073636;28;20508;-71
2023/08/12 08:24:57;;;;;;;21.42;12.70;;;20.70;99.90;;;;;;5071194;28;20024;-73
2023/08/12 08:27:22;;;;;;;21.80;12.55;;;20.80;99.90;;;;;;5068606;28;20049;-74
2023/08/12 08:29:48;;;;;;;19.98;11.68;;;20.80;99.90;;;;;;5074629;28;20039;-75
2023/08/12 08:32:14;;;;;;;21.92;13.23;;;20.80;99.90;;;;;;5075318;28;20025;-74
2023/08/12 08:34:39;;;;;;;20.45;12.10;;;20.80;99.90;;;;;;5079136;28;20041;-71
2023/08/12 08:37:05;;;;;;;19.98;12.38;;;20.80;99.90;;;;;;5076641;28;20041;-72
2023/08/12 08:39:30;;;;;;;19.63;12.48;;;20.70;99.90;;;;;;5074201;28;20140;-73
2023/08/12 08:41:57;;;;;;;20.48;13.13;;;20.70;99.90;;;;;;5065970;28;20403;-73
2023/08/12 08:44:23;;;;;;;19.58;12.20;;;20.60;99.90;;;;;;5071267;28;20036;-73
2023/08/12 08:46:53;;;;;;;20.90;11.80;;;20.60;99.90;;;;;;5076203;28;20029;-74
2023/08/12 08:49:19;;;;;;;22.00;12.15;;;20.50;99.90;;;;;;5067386;28;20104;-73
2023/08/12 08:51:46;;;;;;;23.65;13.00;;;20.40;99.90;;;;;;5070956;28;20049;-73
2023/08/12 08:54:13;;;;;;;23.50;12.80;;;20.40;99.90;;;;;;5082633;28;20039;-71
2023/08/12 08:56:39;;;;;;;31.80;14.85;;;20.30;99.90;;;;;;5081105;28;20025;-72
2023/08/12 08:59:05;;;;;;;29.08;16.15;;;20.30;99.90;;;;;;5066343;28;20060;-74
2023/08/12 09:01:31;;;;;;;30.02;15.80;;;20.20;99.90;;;;;;5078653;28;20404;-72
2023/08/12 09:03:57;;;;;;;23.70;15.38;;;20.20;99.90;;;;;;5085841;28;20035;-72
2023/08/12 09:06:29;;;;;;;32.88;17.63;;;20.10;99.90;;;;;;5075094;28;20036;-72
2023/08/12 09:08:55;;;;;;;27.10;16.90;;;20.00;99.90;;;;;;5066257;28;20028;-71
2023/08/12 09:11:20;;;;;;;29.55;17.20;;;19.90;99.90;;;;;;5065769;28;20028;-73
2023/08/12 09:13:47;;;;;;;32.55;16.25;;;19.90;99.90;;;;;;5066130;28;20025;-73
2023/08/12 09:16:12;;;;;;;32.28;19.17;;;19.90;99.90;;;;;;5074421;28;20028;-72
2023/08/12 09:18:41;;;;;;;30.75;19.67;;;19.80;99.90;;;;;;5064986;28;20041;-73
2023/08/12 09:21:08;;;;;;;36.30;20.73;;;19.80;99.90;;;;;;5064820;28;20036;-71
2023/08/12 09:23:44;;;;;;;39.33;21.35;;;19.80;99.90;;;;;;5069762;28;20025;-72
2023/08/12 09:26:18;;;;;;;45.42;24.88;;;19.80;99.90;;;;;;5069076;28;20120;-71
2023/08/12 09:28:45;;;;;;;47.60;24.55;;;19.80;99.90;;;;;;5073431;28;20028;-72
2023/08/12 09:31:29;;;;;;;41.50;25.15;;;19.80;99.90;;;;;;5084685;28;20504;-72
2023/08/12 09:34:08;;;;;;;47.03;25.30;;;19.80;99.90;;;;;;5072469;28;20036;-72
2023/08/12 09:36:34;;;;;;;47.83;26.48;;;19.80;99.90;;;;;;5079386;28;20028;-71
2023/08/12 09:39:05;;;;;;;47.50;28.00;;;19.80;99.90;;;;;;5085351;28;20027;-72
2023/08/12 09:41:31;;;;;;;55.00;29.50;;;19.80;99.90;;;;;;5085765;28;20541;-72
2023/08/12 09:43:57;;;;;;;47.80;28.50;;;19.80;99.90;;;;;;5076281;28;20065;-72
2023/08/12 09:46:26;;;;;;;49.08;28.13;;;19.80;99.90;;;;;;5076080;28;20029;-72
2023/08/12 09:48:54;;;;;;;48.08;28.42;;;19.80;99.90;;;;;;5068835;28;20029;-72
2023/08/12 09:51:23;;;;;;;61.70;32.88;;;19.80;99.90;;;;;;5067124;28;20033;-74
2023/08/12 09:53:49;;;;;;;57.58;31.95;;;19.80;99.90;;;;;;5069610;28;20028;-71
2023/08/12 09:56:19;;;;;;;59.00;33.15;;;19.90;99.90;;;;;;5065480;28;20025;-73
2023/08/12 09:58:50;;;;;;;57.22;31.50;;;19.90;99.90;;;;;;5065089;28;20029;-73
2023/08/12 10:01:23;;;;;;;60.58;34.17;;;19.90;99.90;;;;;;5076939;28;20044;-72
2023/08/12 10:03:51;;;;;;;64.00;34.53;;;19.90;99.90;;;;;;5072221;28;20029;-71
2023/08/12 10:06:18;;;;;;;54.63;32.70;;;19.90;99.90;;;;;;5077522;28;20083;-71
2023/08/12 10:08:46;;;;;;;57.47;32.30;;;19.90;99.90;;;;;;5085316;28;20021;-72
2023/08/12 10:11:13;;;;;;;61.33;33.20;;;19.90;99.90;;;;;;5085377;28;20021;-71
2023/08/12 10:13:40;;;;;;;62.70;34.60;;;19.80;99.90;;;;;;5084766;28;20029;-72
2023/08/12 10:16:06;;;;;;;75.90;37.40;;;19.80;99.90;;;;;;5074374;28;20021;-71
2023/08/12 10:18:33;;;;;;;84.72;40.92;;;19.80;99.90;;;;;;5067280;28;20052;-71
2023/08/12 10:21:00;;;;;;;87.40;45.03;;;19.80;99.90;;;;;;5067509;28;20044;-72
2023/08/12 10:23:26;;;;;;;95.32;47.25;;;19.80;99.90;;;;;;5066396;28;20029;-71
2023/08/12 10:25:56;;;;;;;102.50;47.53;;;19.80;99.90;;;;;;5066899;28;20466;-72
2023/08/12 10:28:22;;;;;;;129.75;52.67;;;19.70;99.90;;;;;;5064440;28;20025;-70
2023/08/12 10:30:48;;;;;;;111.70;51.30;;;19.80;99.90;;;;;;5078786;28;20108;-72
2023/08/12 10:33:18;;;;;;;102.85;49.72;;;19.70;99.90;;;;;;5084575;28;20081;-72
2023/08/12 10:35:46;;;;;;;103.35;50.40;;;19.80;99.90;;;;;;5084661;28;20020;-75
2023/08/12 10:38:16;;;;;;;130.00;53.58;;;19.70;99.90;;;;;;5082877;28;20104;-72
2023/08/12 10:40:42;;;;;;;119.35;55.47;;;19.70;99.90;;;;;;5079212;28;20402;-72
2023/08/12 10:43:08;;;;;;;109.88;53.70;;;19.70;99.90;;;;;;5070265;28;20039;-72
2023/08/12 10:45:48;;;;;;;112.30;53.63;;;19.70;99.90;;;;;;5064483;28;20025;-72
2023/08/12 10:48:23;;;;;;;119.15;54.30;;;19.70;99.90;;;;;;5064792;28;20509;-72
2023/08/12 10:50:53;;;;;;;108.00;52.10;;;19.70;99.90;;;;;;5076882;28;20083;-72
2023/08/12 10:53:31;;;;;;;109.35;52.35;;;19.70;99.90;;;;;;5070590;28;20060;-72
2023/08/12 10:56:04;;;;;;;132.90;54.95;;;19.70;99.90;;;;;;5077875;28;20029;-73
2023/08/12 10:58:46;;;;;;;134.52;58.75;;;19.70;99.90;;;;;;5073943;28;20113;-73
2023/08/12 11:01:18;;;;;;;102.03;51.35;;;19.70;99.90;;;;;;5073060;28;20035;-75
2023/08/12 11:03:44;;;;;;;111.45;52.25;;;19.80;99.90;;;;;;5074921;28;20035;-71
2023/08/12 11:06:10;;;;;;;114.65;55.42;;;19.80;99.90;;;;;;5064812;28;20089;-69
2023/08/12 11:08:36;;;;;;;114.40;54.25;;;19.80;99.90;;;;;;5064684;28;20028;-72
2023/08/12 11:11:02;;;;;;;127.03;56.15;;;19.80;99.90;;;;;;5054880;28;20077;-71
2023/08/12 11:13:28;;;;;;;98.30;50.33;;;19.80;99.90;;;;;;5060623;28;20017;-71
2023/08/12 11:16:06;;;;;;;120.05;55.00;;;19.80;99.90;;;;;;5068760;28;20020;-71
2023/08/12 11:18:32;;;;;;;123.20;58.95;;;19.90;99.90;;;;;;5077589;28;20115;-70
2023/08/12 11:20:58;;;;;;;131.75;57.38;;;19.90;99.90;;;;;;5077748;28;20044;-70
2023/08/12 11:23:24;;;;;;;118.18;56.70;;;20.00;99.90;;;;;;5080009;28;20028;-71
2023/08/12 11:25:50;;;;;;;104.75;54.20;;;20.10;99.90;;;;;;5078481;28;20037;-71
2023/08/12 11:28:19;;;;;;;108.38;53.40;;;20.10;99.90;;;;;;5076630;28;20028;-71
2023/08/12 11:30:45;;;;;;;82.60;46.13;;;20.10;99.90;;;;;;5079327;28;20025;-70
2023/08/12 11:33:11;;;;;;;95.10;50.00;;;20.10;99.90;;;;;;5074707;28;20092;-73
2023/08/12 11:35:38;;;;;;;88.50;47.35;;;20.10;99.90;;;;;;5077765;28;20089;-71
2023/08/12 11:38:05;;;;;;;75.47;43.35;;;20.10;99.90;;;;;;5073202;28;20075;-70
2023/08/12 11:40:31;;;;;;;85.90;45.05;;;20.00;99.90;;;;;;5075417;28;20025;-70
2023/08/12 11:42:56;;;;;;;86.55;48.17;;;20.00;99.90;;;;;;5075736;28;20023;-71
2023/08/12 11:45:24;;;;;;;80.78;46.45;;;20.00;99.90;;;;;;5076174;28;20025;-71
2023/08/12 11:47:54;;;;;;;75.55;44.28;;;20.00;99.90;;;;;;5071017;28;20036;-71
2023/08/12 11:50:21;;;;;;;85.25;48.05;;;20.10;99.90;;;;;;5067234;28;20047;-71
2023/08/12 11:52:48;;;;;;;80.05;44.95;;;20.20;99.90;;;;;;5066795;28;20044;-70
2023/08/12 11:55:15;;;;;;;71.72;42.60;;;20.20;99.90;;;;;;5079147;28;20029;-72
2023/08/12 11:57:41;;;;;;;87.57;47.38;;;20.20;99.90;;;;;;5086870;28;20040;-70
2023/08/12 12:00:13;;;;;;;79.93;46.58;;;20.20;99.90;;;;;;5086691;28;20036;-72
2023/08/12 12:02:49;;;;;;;75.60;44.92;;;20.30;99.90;;;;;;5086895;28;20020;-70
2023/08/12 12:05:16;;;;;;;76.35;45.00;;;20.50;99.90;;;;;;5078453;28;20021;-71
2023/08/12 12:07:43;;;;;;;76.97;46.67;;;20.60;99.90;;;;;;5071659;28;20023;-72
2023/08/12 12:10:15;;;;;;;77.38;45.33;;;20.70;99.90;;;;;;5066756;28;20430;-71
2023/08/12 12:12:41;;;;;;;56.60;35.83;;;20.70;99.90;;;;;;5066794;28;20439;-71
2023/08/12 12:15:07;;;;;;;64.45;39.97;;;20.70;99.90;;;;;;5066704;28;20033;-71
2023/08/12 12:17:38;;;;;;;57.17;35.42;;;20.60;99.90;;;;;;5066339;28;20029;-70
2023/08/12 12:20:05;;;;;;;54.70;33.33;;;20.60;99.90;;;;;;5072040;28;20024;-71
2023/08/12 12:22:33;;;;;;;44.70;30.10;;;20.60;99.90;;;;;;5069785;28;20050;-71